createdAt,value
2022-08-21T00:02:16.552Z,17.98
2022-08-21T00:04:48.296Z,18.03
2022-08-21T00:07:25.387Z,18.00
2022-08-21T00:09:52.597Z,17.98
2022-08-21T00:12:22.047Z,17.96
2022-08-21T00:14:48.889Z,17.91
2022-08-21T00:17:18.526Z,17.95
2022-08-21T00:19:45.100Z,17.87
2022-08-21T00:22:11.718Z,17.95
2022-08-21T00:24:38.365Z,17.91
2022-08-21T00:27:05.234Z,17.94
2022-08-21T00:29:31.866Z,17.91
2022-08-21T00:31:59.643Z,17.90
2022-08-21T00:34:26.320Z,17.83
2022-08-21T00:36:52.913Z,17.89
2022-08-21T00:39:19.668Z,17.84
2022-08-21T00:41:46.342Z,17.84
2022-08-21T00:44:15.404Z,17.85
2022-08-21T00:46:43.818Z,17.78
2022-08-21T00:49:15.136Z,17.84
2022-08-21T00:51:48.517Z,17.81
2022-08-21T00:54:19.006Z,17.78
2022-08-21T00:56:48.939Z,17.75
2022-08-21T00:59:17.815Z,17.75
2022-08-21T01:01:44.761Z,17.64
2022-08-21T01:04:12.305Z,17.69
2022-08-21T01:06:38.850Z,17.66
2022-08-21T01:09:05.546Z,17.56
2022-08-21T01:11:32.231Z,17.62
2022-08-21T01:13:58.953Z,17.60
2022-08-21T01:16:26.078Z,17.53
2022-08-21T01:18:52.842Z,17.44
2022-08-21T01:21:28.061Z,17.53
2022-08-21T01:23:57.178Z,17.53
2022-08-21T01:26:34.568Z,17.53
2022-08-21T01:29:12.744Z,17.45
2022-08-21T01:31:39.920Z,17.44
2022-08-21T01:34:07.861Z,17.48
2022-08-21T01:36:34.882Z,17.46
2022-08-21T01:39:02.046Z,17.31
2022-08-21T01:41:28.890Z,17.30
2022-08-21T01:43:55.591Z,17.40
2022-08-21T01:46:22.385Z,17.38
2022-08-21T01:48:51.547Z,17.37
2022-08-21T01:51:18.243Z,17.34
2022-08-21T01:53:44.880Z,17.17
2022-08-21T01:56:14.920Z,17.28
2022-08-21T01:58:42.640Z,17.24
2022-08-21T02:01:10.454Z,17.16
2022-08-21T02:03:37.734Z,17.09
2022-08-21T02:06:06.111Z,17.07
2022-08-21T02:08:32.831Z,17.05
2022-08-21T02:11:00.132Z,17.03
2022-08-21T02:13:27.195Z,16.99
2022-08-21T02:15:53.809Z,16.96
2022-08-21T02:18:20.443Z,16.87
2022-08-21T02:20:56.302Z,16.97
2022-08-21T02:23:27.677Z,16.91
2022-08-21T02:26:02.901Z,16.91
2022-08-21T02:28:30.839Z,16.89
2022-08-21T02:30:57.976Z,16.85
2022-08-21T02:33:28.161Z,16.81
2022-08-21T02:35:55.958Z,16.81
2022-08-21T02:38:27.144Z,16.82
2022-08-21T02:40:55.172Z,16.81
2022-08-21T02:43:24.819Z,16.78
2022-08-21T02:45:52.871Z,16.69
2022-08-21T02:48:23.866Z,16.74
2022-08-21T02:51:00.326Z,16.72
2022-08-21T02:53:27.867Z,16.72
2022-08-21T02:55:54.891Z,16.71
2022-08-21T02:58:25.614Z,16.61
2022-08-21T03:00:53.056Z,16.67
2022-08-21T03:03:22.060Z,16.68
2022-08-21T03:05:52.137Z,16.67
2022-08-21T03:08:19.646Z,16.64
2022-08-21T03:10:49.236Z,16.63
2022-08-21T03:13:17.068Z,16.61
2022-08-21T03:15:44.078Z,16.59
2022-08-21T03:18:12.923Z,16.52
2022-08-21T03:20:41.459Z,16.53
2022-08-21T03:23:14.328Z,16.52
2022-08-21T03:25:46.842Z,16.53
2022-08-21T03:28:16.610Z,16.50
2022-08-21T03:30:45.519Z,16.48
2022-08-21T03:33:12.469Z,16.44
2022-08-21T03:35:46.073Z,16.41
2022-08-21T03:38:13.985Z,16.41
2022-08-21T03:40:42.010Z,16.39
2022-08-21T03:43:10.608Z,16.34
2022-08-21T03:45:38.845Z,16.35
2022-08-21T03:48:07.648Z,16.33
2022-08-21T03:50:40.738Z,16.34
2022-08-21T03:53:16.666Z,16.37
2022-08-21T03:55:44.782Z,16.39
2022-08-21T03:58:16.938Z,16.39
2022-08-21T04:00:46.196Z,16.38
2022-08-21T04:03:12.956Z,16.38
2022-08-21T04:05:39.800Z,16.37
2022-08-21T04:08:07.109Z,16.33
2022-08-21T04:10:36.933Z,16.38
2022-08-21T04:13:05.400Z,16.36
2022-08-21T04:15:32.041Z,16.26
2022-08-21T04:17:58.842Z,16.20
2022-08-21T04:20:26.403Z,16.30
2022-08-21T04:22:53.466Z,16.17
2022-08-21T04:25:22.777Z,16.24
2022-08-21T04:27:49.848Z,16.17
2022-08-21T04:30:17.163Z,16.20
2022-08-21T04:32:56.324Z,16.20
2022-08-21T04:35:24.188Z,16.18
2022-08-21T04:37:51.230Z,16.18
2022-08-21T04:40:20.297Z,16.14
2022-08-21T04:42:52.793Z,16.14
2022-08-21T04:45:36.710Z,16.16
2022-08-21T04:48:04.298Z,16.11
2022-08-21T04:50:37.290Z,16.13
2022-08-21T04:53:08.341Z,16.09
2022-08-21T04:55:35.380Z,16.06
2022-08-21T04:58:02.312Z,16.14
2022-08-21T05:00:29.076Z,16.30
2022-08-21T05:03:00.296Z,16.50
2022-08-21T05:05:30.031Z,16.92
2022-08-21T05:07:59.448Z,17.27
2022-08-21T05:10:26.715Z,17.80
2022-08-21T05:12:53.867Z,18.26
2022-08-21T05:15:20.916Z,18.73
2022-08-21T05:17:52.574Z,19.17
2022-08-21T05:20:27.469Z,19.69
2022-08-21T05:22:54.129Z,20.14
2022-08-21T05:25:22.246Z,20.48
2022-08-21T05:27:52.397Z,20.99
2022-08-21T05:30:20.081Z,21.43
2022-08-21T05:32:50.774Z,21.85
2022-08-21T05:35:17.427Z,22.26
2022-08-21T05:37:44.016Z,22.68
2022-08-21T05:40:22.549Z,23.10
2022-08-21T05:42:55.588Z,23.62
2022-08-21T05:45:41.342Z,23.98
2022-08-21T05:48:19.224Z,24.39
2022-08-21T05:50:50.719Z,24.74
2022-08-21T05:53:19.224Z,25.05
2022-08-21T05:55:46.952Z,25.29
2022-08-21T05:58:20.253Z,25.59
2022-08-21T06:00:48.862Z,25.73
2022-08-21T06:03:24.997Z,25.88
2022-08-21T06:05:53.280Z,26.02
2022-08-21T06:08:20.890Z,26.31
2022-08-21T06:10:49.087Z,26.45
2022-08-21T06:13:17.865Z,26.55
2022-08-21T06:15:48.133Z,26.71
2022-08-21T06:18:15.224Z,26.85
2022-08-21T06:20:42.012Z,26.96
2022-08-21T06:23:08.929Z,27.17
2022-08-21T06:25:36.033Z,27.39
2022-08-21T06:28:10.839Z,27.48
2022-08-21T06:30:40.358Z,27.57
2022-08-21T06:33:07.958Z,27.60
2022-08-21T06:35:35.092Z,27.77
2022-08-21T06:38:02.470Z,27.89
2022-08-21T06:40:30.396Z,27.91
2022-08-21T06:43:10.238Z,27.89
2022-08-21T06:45:37.045Z,27.96
2022-08-21T06:48:04.583Z,27.96
2022-08-21T06:50:33.296Z,27.70
2022-08-21T06:53:02.425Z,27.44
2022-08-21T06:55:29.347Z,27.31
2022-08-21T06:57:55.961Z,27.35
2022-08-21T07:00:22.667Z,27.29
2022-08-21T07:02:49.569Z,27.31
2022-08-21T07:05:18.407Z,27.11
2022-08-21T07:07:46.649Z,27.10
2022-08-21T07:10:22.128Z,26.88
2022-08-21T07:12:52.560Z,26.87
2022-08-21T07:15:31.511Z,27.00
2022-08-21T07:17:59.800Z,26.93
2022-08-21T07:20:28.533Z,27.18
2022-08-21T07:22:56.139Z,26.95
2022-08-21T07:25:23.587Z,27.04
2022-08-21T07:27:50.290Z,27.00
2022-08-21T07:30:16.894Z,27.04
2022-08-21T07:32:43.469Z,27.16
2022-08-21T07:35:10.114Z,27.22
2022-08-21T07:37:36.829Z,27.31
2022-08-21T07:40:04.465Z,27.40
2022-08-21T07:42:31.133Z,27.38
2022-08-21T07:44:57.686Z,27.44
2022-08-21T07:47:42.545Z,27.68
2022-08-21T07:50:13.210Z,27.67
2022-08-21T07:52:41.219Z,27.91
2022-08-21T07:55:09.617Z,27.95
2022-08-21T07:57:36.330Z,28.00
2022-08-21T08:00:05.705Z,28.03
2022-08-21T08:02:39.210Z,28.22
2022-08-21T08:05:10.236Z,28.01
2022-08-21T08:07:36.884Z,28.00
2022-08-21T08:10:07.529Z,28.22
2022-08-21T08:12:35.929Z,28.45
2022-08-21T08:15:02.785Z,28.55
2022-08-21T08:17:29.502Z,28.78
2022-08-21T08:19:56.449Z,28.89
2022-08-21T08:22:26.808Z,28.72
2022-08-21T08:24:54.537Z,28.42
2022-08-21T08:27:21.954Z,28.50
2022-08-21T08:29:48.786Z,28.74
2022-08-21T08:32:15.853Z,28.69
2022-08-21T08:34:42.496Z,28.90
2022-08-21T08:37:11.061Z,28.98
2022-08-21T08:39:39.131Z,29.06
2022-08-21T08:42:32.764Z,29.21
2022-08-21T08:45:00.588Z,29.42
2022-08-21T08:47:28.635Z,29.59
2022-08-21T08:50:17.643Z,29.88
2022-08-21T08:52:52.451Z,30.12
2022-08-21T08:55:27.241Z,30.17
2022-08-21T08:57:55.589Z,30.16
2022-08-21T09:00:23.993Z,30.16
2022-08-21T09:02:58.188Z,29.97
2022-08-21T09:05:29.731Z,29.74
2022-08-21T09:08:12.626Z,30.00
2022-08-21T09:11:12.878Z,30.09
2022-08-21T09:13:56.818Z,30.18
2022-08-21T09:16:29.745Z,30.41
2022-08-21T09:19:12.949Z,30.28
2022-08-21T09:21:50.969Z,30.36
2022-08-21T09:24:29.415Z,30.51
2022-08-21T09:27:06.120Z,30.72
2022-08-21T09:29:36.297Z,30.85
2022-08-21T09:32:10.407Z,30.80
2022-08-21T09:34:37.143Z,30.95
2022-08-21T09:37:03.837Z,30.70
2022-08-21T09:39:39.982Z,30.77
2022-08-21T09:42:10.005Z,30.93
2022-08-21T09:44:41.526Z,31.06
2022-08-21T09:47:10.310Z,31.05
2022-08-21T09:49:40.585Z,31.15
2022-08-21T09:52:22.761Z,31.11
2022-08-21T09:54:54.291Z,31.13
2022-08-21T09:57:46.433Z,31.16
2022-08-21T10:00:22.564Z,31.31
2022-08-21T10:02:51.638Z,31.30
2022-08-21T10:05:25.215Z,31.31
2022-08-21T10:07:52.642Z,31.38
2022-08-21T10:10:23.767Z,31.41
2022-08-21T10:13:14.961Z,31.41
2022-08-21T10:15:44.394Z,31.70
2022-08-21T10:18:35.884Z,31.63
2022-08-21T10:21:18.646Z,31.56
2022-08-21T10:24:32.189Z,31.65
2022-08-21T10:27:23.877Z,31.79
2022-08-21T10:30:02.108Z,31.88
2022-08-21T10:32:41.931Z,31.83
2022-08-21T10:35:35.463Z,31.28
2022-08-21T10:38:39.272Z,30.63
2022-08-21T10:41:22.590Z,30.26
2022-08-21T10:44:23.201Z,30.10
2022-08-21T10:47:00.878Z,29.80
2022-08-21T10:49:49.157Z,29.31
2022-08-21T10:52:44.248Z,29.77
2022-08-21T10:55:18.152Z,30.13
2022-08-21T10:57:50.541Z,30.47
2022-08-21T11:00:21.614Z,30.90
2022-08-21T11:03:14.125Z,30.86
2022-08-21T11:05:51.092Z,30.51
2022-08-21T11:08:47.727Z,30.40
2022-08-21T11:11:23.629Z,30.58
2022-08-21T11:13:56.200Z,30.86
2022-08-21T11:16:42.475Z,30.96
2022-08-21T11:19:19.307Z,30.92
2022-08-21T11:21:51.887Z,31.04
2022-08-21T11:24:18.577Z,30.93
2022-08-21T11:27:04.549Z,31.30
2022-08-21T11:29:35.648Z,31.70
2022-08-21T11:32:13.062Z,31.97
2022-08-21T11:34:58.293Z,32.02
2022-08-21T11:38:02.361Z,31.82
2022-08-21T11:40:51.110Z,31.49
2022-08-21T11:43:23.198Z,31.29
2022-08-21T11:46:11.799Z,31.08
2022-08-21T11:48:44.920Z,31.24
2022-08-21T11:51:16.043Z,31.49
2022-08-21T11:54:07.166Z,31.52
2022-08-21T11:56:45.339Z,31.34
2022-08-21T11:59:23.894Z,31.34
2022-08-21T12:01:52.825Z,31.55
2022-08-21T12:04:31.887Z,31.48
2022-08-21T12:07:11.625Z,30.89
2022-08-21T12:09:38.314Z,30.53
2022-08-21T12:12:33.485Z,30.52
2022-08-21T12:15:24.350Z,30.14
2022-08-21T12:17:56.883Z,30.51
2022-08-21T12:20:30.578Z,30.76
2022-08-21T12:23:19.686Z,31.10
2022-08-21T12:26:02.612Z,31.37
2022-08-21T12:28:35.286Z,31.37
2022-08-21T12:31:01.903Z,31.54
2022-08-21T12:33:35.291Z,31.45
2022-08-21T12:36:11.566Z,31.50
2022-08-21T12:38:52.646Z,31.66
2022-08-21T12:42:02.149Z,31.75
2022-08-21T12:44:46.743Z,31.93
2022-08-21T12:47:32.923Z,32.09
2022-08-21T12:50:07.475Z,32.20
2022-08-21T12:52:40.691Z,32.12
2022-08-21T12:55:26.727Z,32.15
2022-08-21T12:57:53.390Z,32.20
2022-08-21T13:00:26.673Z,32.32
2022-08-21T13:02:55.972Z,32.20
2022-08-21T13:05:25.756Z,31.88
2022-08-21T13:07:57.136Z,31.74
2022-08-21T13:10:30.967Z,31.62
2022-08-21T13:13:02.784Z,31.54
2022-08-21T13:15:47.573Z,31.18
2022-08-21T13:18:26.289Z,30.62
2022-08-21T13:21:06.339Z,30.24
2022-08-21T13:23:35.799Z,29.92
2022-08-21T13:26:17.834Z,29.94
2022-08-21T13:28:48.213Z,29.79
2022-08-21T13:31:22.104Z,29.84
2022-08-21T13:33:50.018Z,29.84
2022-08-21T13:36:25.151Z,29.92
2022-08-21T13:38:56.907Z,30.14
2022-08-21T13:41:33.195Z,30.23
2022-08-21T13:44:05.804Z,30.11
2022-08-21T13:46:36.565Z,30.08
2022-08-21T13:49:05.841Z,29.88
2022-08-21T13:51:33.358Z,29.56
2022-08-21T13:54:00.081Z,29.26
2022-08-21T13:56:42.068Z,29.26
2022-08-21T13:59:11.658Z,29.46
2022-08-21T14:01:55.782Z,29.67
2022-08-21T14:04:53.069Z,29.66
2022-08-21T14:07:26.977Z,29.68
2022-08-21T14:09:54.381Z,29.82
2022-08-21T14:12:30.585Z,29.94
2022-08-21T14:14:58.560Z,29.87
2022-08-21T14:17:33.620Z,29.74
2022-08-21T14:20:04.482Z,29.71
2022-08-21T14:22:46.259Z,29.50
2022-08-21T14:25:15.327Z,29.23
2022-08-21T14:27:52.586Z,29.01
2022-08-21T14:30:25.216Z,28.99
2022-08-21T14:32:51.976Z,29.09
2022-08-21T14:35:18.813Z,29.25
2022-08-21T14:37:54.994Z,29.24
2022-08-21T14:40:23.914Z,28.92
2022-08-21T14:42:50.872Z,28.55
2022-08-21T14:45:29.180Z,28.27
2022-08-21T14:47:56.861Z,28.20
2022-08-21T14:50:24.303Z,28.18
2022-08-21T14:52:54.518Z,28.02
2022-08-21T14:55:21.263Z,27.93
2022-08-21T14:57:52.728Z,27.77
2022-08-21T15:00:26.973Z,27.69
2022-08-21T15:03:02.567Z,27.53
2022-08-21T15:05:33.698Z,27.43
2022-08-21T15:08:01.561Z,27.38
2022-08-21T15:10:33.506Z,27.30
2022-08-21T15:13:00.228Z,27.23
2022-08-21T15:15:27.136Z,27.40
2022-08-21T15:17:53.654Z,27.50
2022-08-21T15:20:20.289Z,27.49
2022-08-21T15:22:48.964Z,27.61
2022-08-21T15:25:17.974Z,27.71
2022-08-21T15:27:44.871Z,27.69
2022-08-21T15:30:11.993Z,27.59
2022-08-21T15:32:39.084Z,27.62
2022-08-21T15:35:06.168Z,27.66
2022-08-21T15:37:33.338Z,27.76
2022-08-21T15:40:02.245Z,27.64
2022-08-21T15:42:33.950Z,27.41
2022-08-21T15:45:00.671Z,27.19
2022-08-21T15:47:34.077Z,27.15
2022-08-21T15:50:03.006Z,27.14
2022-08-21T15:52:29.624Z,27.13
2022-08-21T15:54:56.170Z,27.09
2022-08-21T15:57:30.125Z,27.01
2022-08-21T16:01:01.193Z,26.81
2022-08-21T16:03:29.032Z,26.56
2022-08-21T16:06:00.082Z,26.40
2022-08-21T16:08:26.834Z,26.21
2022-08-21T16:10:54.928Z,26.18
2022-08-21T16:13:27.017Z,26.09
2022-08-21T16:15:54.153Z,25.98
2022-08-21T16:18:21.163Z,25.78
2022-08-21T16:20:47.836Z,25.79
2022-08-21T16:23:14.860Z,25.83
2022-08-21T16:25:42.356Z,25.85
2022-08-21T16:28:14.570Z,25.79
2022-08-21T16:30:43.070Z,25.84
2022-08-21T16:33:36.920Z,25.87
2022-08-21T16:36:05.654Z,25.90
2022-08-21T16:38:34.681Z,25.89
2022-08-21T16:41:09.724Z,25.93
2022-08-21T16:43:36.645Z,25.92
2022-08-21T16:46:06.048Z,25.87
2022-08-21T16:48:36.820Z,25.84
2022-08-21T16:51:07.884Z,25.83
2022-08-21T16:53:34.835Z,25.84
2022-08-21T16:56:05.062Z,25.74
2022-08-21T16:58:36.089Z,25.73
2022-08-21T17:01:10.406Z,25.73
2022-08-21T17:03:44.946Z,25.63
2022-08-21T17:06:12.490Z,25.55
2022-08-21T17:08:39.133Z,25.54
2022-08-21T17:11:09.179Z,25.55
2022-08-21T17:13:38.959Z,25.55
2022-08-21T17:16:06.506Z,25.54
2022-08-21T17:18:33.211Z,25.54
2022-08-21T17:21:03.206Z,25.55
2022-08-21T17:23:29.797Z,25.46
2022-08-21T17:25:57.329Z,25.38
2022-08-21T17:28:27.846Z,25.32
2022-08-21T17:30:56.681Z,25.30
2022-08-21T17:33:25.378Z,25.25
2022-08-21T17:35:53.481Z,25.20
2022-08-21T17:38:20.357Z,25.12
2022-08-21T17:40:48.027Z,25.07
2022-08-21T17:43:15.780Z,25.01
2022-08-21T17:45:44.457Z,24.96
2022-08-21T17:48:14.398Z,24.74
2022-08-21T17:50:41.232Z,24.79
2022-08-21T17:53:07.896Z,24.72
2022-08-21T17:55:34.869Z,24.67
2022-08-21T17:58:03.618Z,24.60
2022-08-21T18:00:31.703Z,24.45
2022-08-21T18:03:18.607Z,24.43
2022-08-21T18:05:48.580Z,24.34
2022-08-21T18:08:18.081Z,24.28
2022-08-21T18:10:46.972Z,24.19
2022-08-21T18:13:17.330Z,24.10
2022-08-21T18:15:46.566Z,24.00
2022-08-21T18:18:16.157Z,23.87
2022-08-21T18:20:44.824Z,23.72
2022-08-21T18:23:14.403Z,23.70
2022-08-21T18:25:46.165Z,23.60
2022-08-21T18:28:13.270Z,23.48
2022-08-21T18:30:42.623Z,23.47
2022-08-21T18:33:11.841Z,23.37
2022-08-21T18:35:38.424Z,23.25
2022-08-21T18:38:07.227Z,23.16
2022-08-21T18:40:37.803Z,23.08
2022-08-21T18:43:09.983Z,22.99
2022-08-21T18:45:42.706Z,22.92
2022-08-21T18:48:13.048Z,22.83
2022-08-21T18:50:42.647Z,22.70
2022-08-21T18:53:20.865Z,22.61
2022-08-21T18:55:54.505Z,22.46
2022-08-21T18:58:24.010Z,22.39
2022-08-21T19:00:51.695Z,22.27
2022-08-21T19:03:23.823Z,22.23
2022-08-21T19:05:52.280Z,22.17
2022-08-21T19:08:21.353Z,22.13
2022-08-21T19:10:55.514Z,22.04
2022-08-21T19:13:22.853Z,21.98
2022-08-21T19:15:53.589Z,21.90
2022-08-21T19:18:28.333Z,21.81
2022-08-21T19:23:44.408Z,21.73
2022-08-21T19:26:12.101Z,21.68
2022-08-21T19:28:45.920Z,21.64
2022-08-21T19:31:23.650Z,21.55
2022-08-21T19:34:01.404Z,21.50
2022-08-21T19:36:29.238Z,21.34
2022-08-21T19:38:55.945Z,21.41
2022-08-21T19:41:32.044Z,21.33
2022-08-21T19:44:01.889Z,21.29
2022-08-21T19:46:35.336Z,21.20
2022-08-21T19:49:03.744Z,21.16
2022-08-21T19:51:34.099Z,21.14
2022-08-21T19:54:01.532Z,21.09
2022-08-21T19:56:30.714Z,21.00
2022-08-21T19:59:02.265Z,20.94
2022-08-21T20:01:34.376Z,20.90
2022-08-21T20:04:01.063Z,20.87
2022-08-21T20:06:30.403Z,20.81
2022-08-21T20:08:57.112Z,20.77
2022-08-21T20:11:35.973Z,20.67
2022-08-21T20:14:02.692Z,20.68
2022-08-21T20:16:29.641Z,20.66
2022-08-21T20:18:56.598Z,20.66
2022-08-21T20:21:26.510Z,20.63
2022-08-21T20:23:53.064Z,20.63
2022-08-21T20:26:19.841Z,20.61
2022-08-21T20:28:46.519Z,20.54
2022-08-21T20:31:17.711Z,20.11
2022-08-21T20:33:46.662Z,20.41
2022-08-21T20:36:16.792Z,20.26
2022-08-21T20:38:44.210Z,20.26
2022-08-21T20:41:21.462Z,20.24
2022-08-21T20:44:04.327Z,20.18
2022-08-21T20:46:32.169Z,20.15
2022-08-21T20:49:03.552Z,20.12
2022-08-21T20:51:33.176Z,20.13
2022-08-21T20:54:24.309Z,20.10
2022-08-21T20:57:05.869Z,20.03
2022-08-21T20:59:46.742Z,19.97
2022-08-21T21:02:16.452Z,19.93
2022-08-21T21:04:47.744Z,19.91
2022-08-21T21:07:34.824Z,19.89
2022-08-21T21:10:06.017Z,19.83
2022-08-21T21:12:37.658Z,19.78
2022-08-21T21:15:14.505Z,19.74
2022-08-21T21:17:47.266Z,19.64
2022-08-21T21:20:34.444Z,19.64
2022-08-21T21:23:28.167Z,19.58
2022-08-21T21:26:29.233Z,19.43
2022-08-21T21:29:14.421Z,19.49
2022-08-21T21:31:41.565Z,19.45
2022-08-21T21:34:09.048Z,19.41
2022-08-21T21:37:07.922Z,19.33
2022-08-21T21:39:37.196Z,19.37
2022-08-21T21:42:34.712Z,19.38
2022-08-21T21:45:01.237Z,19.36
2022-08-21T21:47:47.490Z,19.24
2022-08-21T21:50:51.404Z,19.28
2022-08-21T21:53:29.811Z,19.28
2022-08-21T21:56:14.267Z,19.28
2022-08-21T21:59:20.432Z,19.23
2022-08-21T22:02:05.835Z,19.20
2022-08-21T22:04:53.614Z,19.19
2022-08-21T22:07:21.111Z,19.13
2022-08-21T22:09:57.995Z,19.06
2022-08-21T22:12:49.570Z,19.01
2022-08-21T22:15:26.225Z,18.95
2022-08-21T22:18:10.088Z,18.87
2022-08-21T22:20:48.864Z,18.85
2022-08-21T22:23:22.610Z,18.79
2022-08-21T22:25:54.086Z,18.78
2022-08-21T22:31:23.076Z,18.82
2022-08-21T22:34:14.258Z,18.78
2022-08-21T22:37:01.041Z,18.70
2022-08-21T22:39:39.165Z,18.62
2022-08-21T22:42:28.109Z,18.60
2022-08-21T22:45:12.234Z,18.57
2022-08-21T22:47:44.835Z,18.56
2022-08-21T22:50:21.848Z,18.52
2022-08-21T22:52:54.888Z,18.48
2022-08-21T22:55:25.865Z,18.50
2022-08-21T22:58:06.992Z,18.48
2022-08-21T23:00:49.683Z,18.46
2022-08-21T23:03:23.376Z,18.41
2022-08-21T23:05:51.856Z,18.40
2022-08-21T23:08:24.003Z,18.38
2022-08-21T23:10:56.416Z,18.31
2022-08-21T23:13:23.019Z,18.22
2022-08-21T23:16:01.509Z,18.23
2022-08-21T23:18:54.236Z,18.22
2022-08-21T23:21:32.627Z,18.24
2022-08-21T23:24:19.600Z,18.23
2022-08-21T23:27:07.896Z,18.24
2022-08-21T23:29:59.587Z,18.25
2022-08-21T23:33:09.064Z,18.15
2022-08-21T23:36:19.292Z,18.22
2022-08-21T23:38:51.279Z,18.22
2022-08-21T23:41:34.125Z,18.22
2022-08-21T23:44:31.603Z,18.18
2022-08-21T23:47:13.349Z,18.15
2022-08-21T23:49:48.414Z,18.20
2022-08-21T23:52:42.858Z,18.21
2022-08-21T23:55:46.137Z,18.20
2022-08-21T23:58:29.249Z,18.16
